createdAt,value
2023-03-17T00:01:21.871Z,6.20
2023-03-17T00:03:51.666Z,6.20
2023-03-17T00:06:24.642Z,6.10
2023-03-17T00:08:52.898Z,6.10
2023-03-17T00:11:21.690Z,6.10
2023-03-17T00:13:50.154Z,6.00
2023-03-17T00:16:20.770Z,6.00
2023-03-17T00:18:51.444Z,6.00
2023-03-17T00:21:24.000Z,6.00
2023-03-17T00:23:53.185Z,6.00
2023-03-17T00:26:21.686Z,5.90
2023-03-17T00:28:51.092Z,5.90
2023-03-17T00:31:22.293Z,5.80
2023-03-17T00:33:54.146Z,5.80
2023-03-17T00:36:25.040Z,5.80
2023-03-17T00:38:53.745Z,5.80
2023-03-17T00:41:22.488Z,5.80
2023-03-17T00:43:51.422Z,5.70
2023-03-17T00:46:22.089Z,5.70
2023-03-17T00:48:51.829Z,5.70
2023-03-17T00:51:20.250Z,5.70
2023-03-17T00:53:48.722Z,5.70
2023-03-17T00:56:18.493Z,5.70
2023-03-17T00:58:47.606Z,5.70
2023-03-17T01:01:16.085Z,5.60
2023-03-17T01:03:44.664Z,5.60
2023-03-17T01:06:15.594Z,5.60
2023-03-17T01:08:44.888Z,5.60
2023-03-17T01:11:16.259Z,5.60
2023-03-17T01:13:44.829Z,5.60
2023-03-17T01:16:13.584Z,5.60
2023-03-17T01:18:41.943Z,5.50
2023-03-17T01:21:10.288Z,5.60
2023-03-17T01:23:39.990Z,5.60
2023-03-17T01:26:08.252Z,5.50
2023-03-17T01:28:36.513Z,5.50
2023-03-17T01:31:05.031Z,5.50
2023-03-17T01:33:33.690Z,5.50
2023-03-17T01:36:01.992Z,5.50
2023-03-17T01:38:30.287Z,5.50
2023-03-17T01:41:00.138Z,5.50
2023-03-17T01:43:30.877Z,5.50
2023-03-17T01:46:20.814Z,5.50
2023-03-17T01:48:57.850Z,5.50
2023-03-17T01:51:31.963Z,5.50
2023-03-17T01:54:01.100Z,5.50
2023-03-17T01:56:31.571Z,5.50
2023-03-17T01:59:02.316Z,5.50
2023-03-17T02:01:34.837Z,5.50
2023-03-17T02:04:03.260Z,5.50
2023-03-17T02:06:31.921Z,5.50
2023-03-17T02:09:00.731Z,5.50
2023-03-17T02:11:30.635Z,5.50
2023-03-17T02:13:58.875Z,5.50
2023-03-17T02:16:27.872Z,5.40
2023-03-17T02:18:56.071Z,5.50
2023-03-17T02:21:47.753Z,5.50
2023-03-17T02:24:23.593Z,5.40
2023-03-17T02:26:54.073Z,5.50
2023-03-17T02:29:23.195Z,5.50
2023-03-17T02:31:51.590Z,5.50
2023-03-17T02:34:20.115Z,5.50
2023-03-17T02:36:49.845Z,5.50
2023-03-17T02:39:18.132Z,5.50
2023-03-17T02:41:46.364Z,5.40
2023-03-17T02:44:14.622Z,5.40
2023-03-17T02:46:42.843Z,5.40
2023-03-17T02:49:12.073Z,5.50
2023-03-17T02:51:40.271Z,5.40
2023-03-17T02:54:09.893Z,5.40
2023-03-17T02:56:38.654Z,5.40
2023-03-17T02:59:07.252Z,5.40
2023-03-17T03:01:35.628Z,5.50
2023-03-17T03:04:04.045Z,5.40
2023-03-17T03:06:32.820Z,5.40
2023-03-17T03:09:01.181Z,5.40
2023-03-17T03:11:30.839Z,5.40
2023-03-17T03:13:59.055Z,5.40
2023-03-17T03:16:27.301Z,5.40
2023-03-17T03:18:55.544Z,5.40
2023-03-17T03:21:23.820Z,5.30
2023-03-17T03:23:52.062Z,5.40
2023-03-17T03:26:20.306Z,5.40
2023-03-17T03:28:50.601Z,5.30
2023-03-17T03:31:18.862Z,5.30
2023-03-17T03:33:47.277Z,5.30
2023-03-17T03:36:15.487Z,5.30
2023-03-17T03:38:43.770Z,5.30
2023-03-17T03:41:12.159Z,5.30
2023-03-17T03:43:40.802Z,5.30
2023-03-17T03:46:10.729Z,5.30
2023-03-17T03:48:38.980Z,5.30
2023-03-17T03:51:07.315Z,5.30
2023-03-17T03:53:35.583Z,5.30
2023-03-17T03:56:03.787Z,5.30
2023-03-17T03:58:32.090Z,5.30
2023-03-17T04:01:00.408Z,5.30
2023-03-17T04:03:30.037Z,5.30
2023-03-17T04:05:58.324Z,5.30
2023-03-17T04:08:27.382Z,5.30
2023-03-17T04:10:55.642Z,5.20
2023-03-17T04:13:23.876Z,5.20
2023-03-17T04:15:52.163Z,5.20
2023-03-17T04:18:20.394Z,5.20
2023-03-17T04:20:49.975Z,5.20
2023-03-17T04:23:18.259Z,5.20
2023-03-17T04:25:46.941Z,5.30
2023-03-17T04:28:15.317Z,5.30
2023-03-17T04:30:43.537Z,5.30
2023-03-17T04:33:11.923Z,5.30
2023-03-17T04:35:40.227Z,5.30
2023-03-17T04:38:10.183Z,5.20
2023-03-17T04:40:38.494Z,5.30
2023-03-17T04:43:06.730Z,5.30
2023-03-17T04:45:34.969Z,5.30
2023-03-17T04:48:03.460Z,5.20
2023-03-17T04:50:33.289Z,5.20
2023-03-17T04:53:01.770Z,5.20
2023-03-17T04:55:31.569Z,5.20
2023-03-17T04:57:59.754Z,5.30
2023-03-17T05:00:28.322Z,5.20
2023-03-17T05:02:56.576Z,5.20
2023-03-17T05:05:24.741Z,5.20
2023-03-17T05:07:53.071Z,5.20
2023-03-17T05:10:21.454Z,5.20
2023-03-17T05:12:51.125Z,5.20
2023-03-17T05:15:19.321Z,5.20
2023-03-17T05:17:47.549Z,5.20
2023-03-17T05:20:16.074Z,5.20
2023-03-17T05:22:44.273Z,5.10
2023-03-17T05:25:12.539Z,5.10
2023-03-17T05:27:40.843Z,5.20
2023-03-17T05:30:11.811Z,5.10
2023-03-17T05:32:40.382Z,5.10
2023-03-17T05:35:09.292Z,5.10
2023-03-17T05:37:37.491Z,5.10
2023-03-17T05:40:06.449Z,5.20
2023-03-17T05:42:34.605Z,5.20
2023-03-17T05:45:02.840Z,5.10
2023-03-17T05:47:33.491Z,5.10
2023-03-17T05:50:02.167Z,5.10
2023-03-17T05:52:31.121Z,5.10
2023-03-17T05:54:59.349Z,5.10
2023-03-17T05:57:27.519Z,5.10
2023-03-17T05:59:55.777Z,5.20
2023-03-17T06:02:24.264Z,5.20
2023-03-17T06:04:53.861Z,5.20
2023-03-17T06:07:22.077Z,5.20
2023-03-17T06:09:50.301Z,5.20
2023-03-17T06:12:18.502Z,5.20
2023-03-17T06:14:46.755Z,5.20
2023-03-17T06:17:14.977Z,5.20
2023-03-17T06:19:43.381Z,5.30
2023-03-17T06:22:13.332Z,5.30
2023-03-17T06:24:41.526Z,5.30
2023-03-17T06:27:10.998Z,5.30
2023-03-17T06:29:39.230Z,5.30
2023-03-17T06:32:19.871Z,5.30
2023-03-17T06:34:49.021Z,5.30
2023-03-17T06:37:19.349Z,5.30
2023-03-17T06:39:48.156Z,5.30
2023-03-17T06:42:16.429Z,5.40
2023-03-17T06:44:44.685Z,5.40
2023-03-17T06:47:13.541Z,5.40
2023-03-17T06:49:41.777Z,5.40
2023-03-17T06:52:10.502Z,5.40
2023-03-17T06:54:41.200Z,5.50
2023-03-17T06:57:10.568Z,5.50
2023-03-17T06:59:39.072Z,5.50
2023-03-17T07:02:07.916Z,5.50
2023-03-17T07:04:37.985Z,5.50
2023-03-17T07:07:06.557Z,5.50
2023-03-17T07:09:35.538Z,5.60
2023-03-17T07:12:06.079Z,5.60
2023-03-17T07:14:35.613Z,5.60
2023-03-17T07:17:04.480Z,5.60
2023-03-17T07:19:33.109Z,5.70
2023-03-17T07:22:01.415Z,5.70
2023-03-17T07:24:29.595Z,5.80
2023-03-17T07:26:57.851Z,5.90
2023-03-17T07:29:28.715Z,6.00
2023-03-17T07:31:57.258Z,6.10
2023-03-17T07:34:25.453Z,6.10
2023-03-17T07:36:53.674Z,6.10
2023-03-17T07:39:21.866Z,6.10
2023-03-17T07:41:55.241Z,6.10
2023-03-17T07:44:24.126Z,6.10
2023-03-17T07:46:53.721Z,6.10
2023-03-17T07:49:38.045Z,6.10
2023-03-17T07:52:08.701Z,6.10
2023-03-17T07:54:37.579Z,6.10
2023-03-17T07:57:06.356Z,6.20
2023-03-17T07:59:34.900Z,6.10
2023-03-17T08:02:04.525Z,6.20
2023-03-17T08:04:32.757Z,6.20
2023-03-17T08:07:01.425Z,6.20
2023-03-17T08:09:29.739Z,6.20
2023-03-17T08:11:57.993Z,6.20
2023-03-17T08:14:26.254Z,6.20
2023-03-17T08:16:54.561Z,6.30
2023-03-17T08:19:24.354Z,6.30
2023-03-17T08:21:52.600Z,6.40
2023-03-17T08:24:20.885Z,6.50
2023-03-17T08:26:50.195Z,6.50
2023-03-17T08:29:18.615Z,6.60
2023-03-17T08:31:47.088Z,6.70
2023-03-17T08:34:16.321Z,6.70
2023-03-17T08:36:46.090Z,6.80
2023-03-17T08:39:14.384Z,6.80
2023-03-17T08:41:42.608Z,6.90
2023-03-17T08:44:10.878Z,7.00
2023-03-17T08:46:40.298Z,7.00
2023-03-17T08:49:09.668Z,7.10
2023-03-17T08:51:38.601Z,7.20
2023-03-17T08:54:08.925Z,7.40
2023-03-17T08:56:38.028Z,7.50
2023-03-17T08:59:07.176Z,7.60
2023-03-17T09:01:35.808Z,7.50
2023-03-17T09:04:05.041Z,7.50
2023-03-17T09:06:33.534Z,7.50
2023-03-17T09:09:01.720Z,7.60
2023-03-17T09:11:32.759Z,7.70
2023-03-17T09:14:00.988Z,7.80
2023-03-17T09:16:33.983Z,7.70
2023-03-17T09:19:02.339Z,7.70
2023-03-17T09:21:33.395Z,7.80
2023-03-17T09:24:02.749Z,7.90
2023-03-17T09:26:32.449Z,8.00
2023-03-17T09:29:02.502Z,8.30
2023-03-17T09:31:31.977Z,8.50
2023-03-17T09:34:00.628Z,8.60
2023-03-17T09:36:29.174Z,8.70
2023-03-17T09:38:57.368Z,8.80
2023-03-17T09:41:43.678Z,8.80
2023-03-17T09:44:19.435Z,8.90
2023-03-17T09:46:52.202Z,9.00
2023-03-17T09:49:22.882Z,9.10
2023-03-17T09:51:51.578Z,9.10
2023-03-17T09:54:25.696Z,9.20
2023-03-17T09:57:01.744Z,9.40
2023-03-17T09:59:34.380Z,9.70
2023-03-17T10:02:02.805Z,10.00
2023-03-17T10:04:31.035Z,9.90
2023-03-17T10:07:02.488Z,10.00
2023-03-17T10:09:35.229Z,9.90
2023-03-17T10:12:08.492Z,10.00
2023-03-17T10:14:46.251Z,9.80
2023-03-17T10:17:18.534Z,9.70
2023-03-17T10:19:49.809Z,9.70
2023-03-17T10:22:21.772Z,9.70
2023-03-17T10:24:52.868Z,9.80
2023-03-17T10:27:22.747Z,9.80
2023-03-17T10:29:51.028Z,9.90
2023-03-17T10:32:19.191Z,10.00
2023-03-17T10:34:48.814Z,10.20
2023-03-17T10:37:19.478Z,10.40
2023-03-17T10:39:49.368Z,10.40
2023-03-17T10:42:24.641Z,10.40
2023-03-17T10:44:56.218Z,10.50
2023-03-17T10:47:27.240Z,10.50
2023-03-17T10:49:57.455Z,10.50
2023-03-17T10:52:28.647Z,10.50
2023-03-17T10:54:56.935Z,10.60
2023-03-17T10:57:26.555Z,10.60
2023-03-17T10:59:56.889Z,10.70
2023-03-17T11:02:28.150Z,10.70
2023-03-17T11:05:00.819Z,10.70
2023-03-17T11:07:34.914Z,10.70
2023-03-17T11:10:04.329Z,10.70
2023-03-17T11:12:40.573Z,10.80
2023-03-17T11:15:12.433Z,10.80
2023-03-17T11:17:45.535Z,10.90
2023-03-17T11:20:41.265Z,11.00
2023-03-17T11:23:15.302Z,11.10
2023-03-17T11:25:45.269Z,11.20
2023-03-17T11:28:20.322Z,11.30
2023-03-17T11:30:59.533Z,11.50
2023-03-17T11:33:35.440Z,11.60
2023-03-17T11:36:10.803Z,11.70
2023-03-17T11:38:44.723Z,11.60
2023-03-17T11:41:41.736Z,11.50
2023-03-17T11:44:41.920Z,11.40
2023-03-17T11:47:18.268Z,11.40
2023-03-17T11:49:49.040Z,11.50
2023-03-17T11:52:24.996Z,11.60
2023-03-17T11:54:58.731Z,11.70
2023-03-17T11:57:32.366Z,11.60
2023-03-17T12:00:04.932Z,11.70
2023-03-17T12:02:39.784Z,11.70
2023-03-17T12:05:10.759Z,11.80
2023-03-17T12:07:44.632Z,11.90
2023-03-17T12:10:19.413Z,12.00
2023-03-17T12:12:52.037Z,12.10
2023-03-17T12:15:27.967Z,12.10
2023-03-17T12:17:59.153Z,12.00
2023-03-17T12:20:32.947Z,12.10
2023-03-17T12:23:06.674Z,12.30
2023-03-17T12:25:40.825Z,12.50
2023-03-17T12:28:16.027Z,12.60
2023-03-17T12:30:50.423Z,12.70
2023-03-17T12:33:23.701Z,12.70
2023-03-17T12:35:52.074Z,12.80
2023-03-17T12:38:23.132Z,12.90
2023-03-17T12:41:36.431Z,12.90
2023-03-17T12:44:08.299Z,13.10
2023-03-17T12:47:10.133Z,13.20
2023-03-17T12:50:04.650Z,13.20
2023-03-17T12:53:12.501Z,13.20
2023-03-17T12:55:42.303Z,13.30
2023-03-17T12:58:24.306Z,13.40
2023-03-17T13:00:59.526Z,13.50
2023-03-17T13:03:30.629Z,13.50
2023-03-17T13:06:01.804Z,13.60
2023-03-17T13:08:33.010Z,13.60
2023-03-17T13:11:17.907Z,13.70
2023-03-17T13:13:49.448Z,13.60
2023-03-17T13:16:29.098Z,13.60
2023-03-17T13:19:21.213Z,13.60
2023-03-17T13:21:59.022Z,13.50
2023-03-17T13:24:43.036Z,13.50
2023-03-17T13:27:13.369Z,13.50
2023-03-17T13:29:47.297Z,13.60
2023-03-17T13:32:39.865Z,13.60
2023-03-17T13:35:26.533Z,13.50
2023-03-17T13:38:31.325Z,13.50
2023-03-17T13:41:16.952Z,13.40
2023-03-17T13:43:57.565Z,13.50
2023-03-17T13:46:30.494Z,13.40
2023-03-17T13:48:59.407Z,13.40
2023-03-17T13:51:33.775Z,13.40
2023-03-17T13:54:10.223Z,13.40
2023-03-17T13:56:50.671Z,13.50
2023-03-17T13:59:20.380Z,13.60
2023-03-17T14:01:53.622Z,13.80
2023-03-17T14:04:24.183Z,13.80
2023-03-17T14:06:56.259Z,14.00
2023-03-17T14:09:35.715Z,14.30
2023-03-17T14:12:07.785Z,14.50
2023-03-17T14:14:43.917Z,14.40
2023-03-17T14:17:15.438Z,14.50
2023-03-17T14:20:00.038Z,14.50
2023-03-17T14:22:29.770Z,14.40
2023-03-17T14:25:01.621Z,14.40
2023-03-17T14:27:31.570Z,14.20
2023-03-17T14:30:08.114Z,14.10
2023-03-17T14:32:36.426Z,14.00
2023-03-17T14:35:04.999Z,14.00
2023-03-17T14:37:34.605Z,13.90
2023-03-17T14:40:02.860Z,13.80
2023-03-17T14:42:32.311Z,13.80
2023-03-17T14:45:02.542Z,13.80
2023-03-17T14:47:39.959Z,13.80
2023-03-17T14:50:15.090Z,13.90
2023-03-17T14:52:45.195Z,13.80
2023-03-17T14:55:15.397Z,13.80
2023-03-17T14:57:43.960Z,13.80
2023-03-17T15:00:31.875Z,13.70
2023-03-17T15:03:02.905Z,13.70
2023-03-17T15:05:37.795Z,13.70
2023-03-17T15:08:39.381Z,13.70
2023-03-17T15:11:07.939Z,13.60
2023-03-17T15:13:38.612Z,13.60
2023-03-17T15:16:07.530Z,13.70
2023-03-17T15:18:36.161Z,13.70
2023-03-17T15:21:04.296Z,13.70
2023-03-17T15:23:40.883Z,13.70
2023-03-17T15:26:22.732Z,13.70
2023-03-17T15:28:50.988Z,13.70
2023-03-17T15:31:23.528Z,13.60
2023-03-17T15:33:53.134Z,13.60
2023-03-17T15:36:32.173Z,13.60
2023-03-17T15:39:03.782Z,13.60
2023-03-17T15:41:32.159Z,13.50
2023-03-17T15:44:00.340Z,13.50
2023-03-17T15:46:31.113Z,13.50
2023-03-17T15:48:59.591Z,13.50
2023-03-17T15:51:27.944Z,13.50
2023-03-17T15:53:56.153Z,13.50
2023-03-17T15:56:26.024Z,13.40
2023-03-17T15:58:54.207Z,13.50
2023-03-17T16:01:22.465Z,13.40
2023-03-17T16:03:50.764Z,13.40
2023-03-17T16:06:21.300Z,13.40
2023-03-17T16:08:50.327Z,13.40
2023-03-17T16:11:20.082Z,13.40
2023-03-17T16:13:49.765Z,13.40
2023-03-17T16:16:22.657Z,13.40
2023-03-17T16:18:51.721Z,13.30
2023-03-17T16:21:20.348Z,13.30
2023-03-17T16:23:49.802Z,13.30
2023-03-17T16:26:18.128Z,13.20
2023-03-17T16:28:47.701Z,13.20
2023-03-17T16:31:29.305Z,13.10
2023-03-17T16:33:58.105Z,13.10
2023-03-17T16:36:26.590Z,13.10
2023-03-17T16:38:54.874Z,13.00
2023-03-17T16:41:24.392Z,13.00
2023-03-17T16:43:55.408Z,13.00
2023-03-17T16:46:23.850Z,12.90
2023-03-17T16:48:53.580Z,12.90
2023-03-17T16:51:22.105Z,12.90
2023-03-17T16:53:50.333Z,12.80
2023-03-17T16:56:20.579Z,12.80
2023-03-17T16:58:49.399Z,12.80
2023-03-17T17:01:20.382Z,12.70
2023-03-17T17:03:49.126Z,12.70
2023-03-17T17:06:19.641Z,12.70
2023-03-17T17:08:49.107Z,12.70
2023-03-17T17:11:18.868Z,12.60
2023-03-17T17:13:49.125Z,12.60
2023-03-17T17:16:21.518Z,12.60
2023-03-17T17:18:50.318Z,12.50
2023-03-17T17:21:20.027Z,12.50
2023-03-17T17:23:48.388Z,12.50
2023-03-17T17:26:16.622Z,12.50
2023-03-17T17:28:44.900Z,12.40
2023-03-17T17:31:13.189Z,12.40
2023-03-17T17:33:41.527Z,12.40
2023-03-17T17:36:14.674Z,12.30
2023-03-17T17:38:44.648Z,12.30
2023-03-17T17:41:13.733Z,12.30
2023-03-17T17:43:42.255Z,12.30
2023-03-17T17:46:14.290Z,12.20
2023-03-17T17:48:42.552Z,12.20
2023-03-17T17:51:10.760Z,12.20
2023-03-17T17:53:39.097Z,12.20
2023-03-17T17:56:12.059Z,12.20
2023-03-17T17:58:40.279Z,12.20
2023-03-17T18:01:08.565Z,12.20
2023-03-17T18:03:37.018Z,12.20
2023-03-17T18:06:05.567Z,12.20
2023-03-17T18:08:34.809Z,12.20
2023-03-17T18:11:03.004Z,12.20
2023-03-17T18:13:34.384Z,12.10
2023-03-17T18:16:03.974Z,12.10
2023-03-17T18:18:32.826Z,12.10
2023-03-17T18:21:01.110Z,12.00
2023-03-17T18:23:29.347Z,12.00
2023-03-17T18:26:00.648Z,12.00
2023-03-17T18:28:28.868Z,12.00
2023-03-17T18:31:03.609Z,12.00
2023-03-17T18:33:32.592Z,11.90
2023-03-17T18:36:01.325Z,11.90
2023-03-17T18:38:29.588Z,11.90
2023-03-17T18:40:57.833Z,11.80
2023-03-17T18:43:26.030Z,11.80
2023-03-17T18:45:54.226Z,11.70
2023-03-17T18:48:24.013Z,11.70
2023-03-17T18:50:52.248Z,11.70
2023-03-17T18:53:20.586Z,11.70
2023-03-17T18:55:48.895Z,11.60
2023-03-17T18:58:17.281Z,11.60
2023-03-17T19:00:45.511Z,11.50
2023-03-17T19:03:13.757Z,11.40
2023-03-17T19:05:43.360Z,11.40
2023-03-17T19:08:11.673Z,11.30
2023-03-17T19:10:43.201Z,11.30
2023-03-17T19:13:11.434Z,11.20
2023-03-17T19:15:39.604Z,11.20
2023-03-17T19:18:07.894Z,11.20
2023-03-17T19:20:36.658Z,11.30
2023-03-17T19:23:07.040Z,11.30
2023-03-17T19:25:36.809Z,11.30
2023-03-17T19:28:06.333Z,11.30
2023-03-17T19:30:35.145Z,11.30
2023-03-17T19:33:03.567Z,11.30
2023-03-17T19:35:31.803Z,11.30
2023-03-17T19:37:59.959Z,11.30
2023-03-17T19:40:29.760Z,11.30
2023-03-17T19:42:58.963Z,11.30
2023-03-17T19:45:27.238Z,11.30
2023-03-17T19:47:55.587Z,11.30
2023-03-17T19:50:23.793Z,11.30
2023-03-17T19:52:53.155Z,11.20
2023-03-17T19:55:21.347Z,11.20
2023-03-17T19:57:51.031Z,11.20
2023-03-17T20:00:19.688Z,11.20
2023-03-17T20:02:48.306Z,11.10
2023-03-17T20:05:17.192Z,11.10
2023-03-17T20:07:46.493Z,11.10
2023-03-17T20:10:14.774Z,11.10
2023-03-17T20:12:44.373Z,11.00
2023-03-17T20:15:15.033Z,11.00
2023-03-17T20:17:43.401Z,11.00
2023-03-17T20:20:12.831Z,10.90
2023-03-17T20:22:43.664Z,10.90
2023-03-17T20:25:12.444Z,10.90
2023-03-17T20:27:41.662Z,10.90
2023-03-17T20:30:12.248Z,10.80
2023-03-17T20:32:42.121Z,10.80
2023-03-17T20:35:10.735Z,10.70
2023-03-17T20:37:39.557Z,10.70
2023-03-17T20:40:10.776Z,10.70
2023-03-17T20:42:39.041Z,10.60
2023-03-17T20:45:08.928Z,10.60
2023-03-17T20:47:37.633Z,10.60
2023-03-17T20:50:08.853Z,10.60
2023-03-17T20:52:37.193Z,10.60
2023-03-17T20:55:06.519Z,10.60
2023-03-17T20:57:38.072Z,10.60
2023-03-17T21:00:08.246Z,10.60
2023-03-17T21:02:36.505Z,10.60
2023-03-17T21:05:05.210Z,10.60
2023-03-17T21:07:34.933Z,10.60
2023-03-17T21:10:03.177Z,10.50
2023-03-17T21:12:31.852Z,10.60
2023-03-17T21:15:00.766Z,10.50
2023-03-17T21:17:28.990Z,10.50
2023-03-17T21:19:57.288Z,10.50
2023-03-17T21:22:25.699Z,10.40
2023-03-17T21:24:55.518Z,10.40
2023-03-17T21:27:23.789Z,10.30
2023-03-17T21:29:52.286Z,10.40
2023-03-17T21:32:20.527Z,10.40
2023-03-17T21:34:48.674Z,10.30
2023-03-17T21:37:18.335Z,10.30
2023-03-17T21:39:46.770Z,10.30
2023-03-17T21:42:16.363Z,10.30
2023-03-17T21:44:45.855Z,10.30
2023-03-17T21:47:14.110Z,10.30
2023-03-17T21:49:42.550Z,10.30
2023-03-17T21:52:11.110Z,10.30
2023-03-17T21:54:39.422Z,10.30
2023-03-17T21:57:07.608Z,10.30
2023-03-17T21:59:37.285Z,10.30
2023-03-17T22:02:05.419Z,10.20
2023-03-17T22:04:33.633Z,10.30
2023-03-17T22:07:04.419Z,10.20
2023-03-17T22:09:32.699Z,10.30
2023-03-17T22:12:00.900Z,10.30
2023-03-17T22:14:29.390Z,10.30
2023-03-17T22:16:59.125Z,10.30
2023-03-17T22:19:28.586Z,10.20
2023-03-17T22:21:57.088Z,10.20
2023-03-17T22:24:25.642Z,10.20
2023-03-17T22:26:54.087Z,10.30
2023-03-17T22:29:22.285Z,10.20
2023-03-17T22:31:50.744Z,10.30
2023-03-17T22:34:20.517Z,10.30
2023-03-17T22:36:48.714Z,10.30
2023-03-17T22:39:16.954Z,10.30
2023-03-17T22:41:45.218Z,10.30
2023-03-17T22:44:13.480Z,10.30
2023-03-17T22:46:42.401Z,10.30
2023-03-17T22:49:11.458Z,10.30
2023-03-17T22:51:42.771Z,10.20
2023-03-17T22:54:11.759Z,10.20
2023-03-17T22:56:40.392Z,10.20
2023-03-17T22:59:08.697Z,10.20
2023-03-17T23:01:36.964Z,10.20
2023-03-17T23:04:05.212Z,10.20
2023-03-17T23:06:33.460Z,10.30
2023-03-17T23:09:03.127Z,10.30
2023-03-17T23:11:31.887Z,10.30
2023-03-17T23:14:00.176Z,10.20
2023-03-17T23:16:28.544Z,10.30
2023-03-17T23:18:56.931Z,10.30
2023-03-17T23:21:28.124Z,10.30
2023-03-17T23:23:56.635Z,10.30
2023-03-17T23:26:26.330Z,10.30
2023-03-17T23:28:54.800Z,10.20
2023-03-17T23:31:23.340Z,10.30
2023-03-17T23:33:52.670Z,10.30
2023-03-17T23:36:21.385Z,10.30
2023-03-17T23:38:50.374Z,10.30
2023-03-17T23:41:18.617Z,10.30
2023-03-17T23:43:49.150Z,10.30
2023-03-17T23:46:17.778Z,10.30
2023-03-17T23:48:46.192Z,10.30
2023-03-17T23:51:14.486Z,10.20
2023-03-17T23:53:43.004Z,10.20
2023-03-17T23:56:13.036Z,10.20
2023-03-17T23:58:42.529Z,10.20
